Time;durP1;ratioP1;P1;durP2;ratioP2;P2;SDS_P1;SDS_P2;PMS_P1;PMS_P2;Temp;Humidity;BMP_temperature;BMP_pressure;BME280_temperature;BME280_humidity;BME280_pressure;Samples;Min_cycle;Max_cycle;Signal;HPM_P1;HPM_P2
2021/03/25 00:00:40;;;;;;;30.40;14.27;;;7.80;99.90;;;;;;5084561;28;20040;-73
2021/03/25 00:03:08;;;;;;;46.00;14.32;;;7.80;99.90;;;;;;5081035;28;20549;-73
2021/03/25 00:05:34;;;;;;;28.85;12.27;;;7.90;99.90;;;;;;5080412;28;20031;-73
2021/03/25 00:08:01;;;;;;;34.70;14.00;;;7.90;99.90;;;;;;5066858;28;20052;-75
2021/03/25 00:10:31;;;;;;;32.67;12.00;;;7.80;99.90;;;;;;5082743;28;20032;-73
2021/03/25 00:12:57;;;;;;;41.90;13.02;;;7.80;99.90;;;;;;5084256;28;20050;-73
2021/03/25 00:15:23;;;;;;;24.40;11.82;;;7.80;99.90;;;;;;5083029;28;20029;-72
2021/03/25 00:17:49;;;;;;;30.25;12.57;;;7.80;99.90;;;;;;5074825;28;20110;-73
2021/03/25 00:20:15;;;;;;;25.13;10.93;;;7.80;99.90;;;;;;5064010;28;20396;-73
2021/03/25 00:22:42;;;;;;;33.30;12.80;;;7.80;99.90;;;;;;5063957;28;20020;-73
2021/03/25 00:25:10;;;;;;;26.33;10.73;;;7.80;99.90;;;;;;5062541;28;20029;-74
2021/03/25 00:27:35;;;;;;;30.45;11.85;;;7.70;99.90;;;;;;5063739;28;20029;-73
2021/03/25 00:30:02;;;;;;;24.52;10.43;;;7.60;99.90;;;;;;5063779;28;20029;-74
2021/03/25 00:32:28;;;;;;;31.17;11.52;;;7.60;99.90;;;;;;5063903;28;20017;-74
2021/03/25 00:34:53;;;;;;;26.20;9.82;;;7.70;99.90;;;;;;5064120;28;20485;-73
2021/03/25 00:37:19;;;;;;;26.38;11.15;;;7.60;99.90;;;;;;5062085;28;20568;-74
2021/03/25 00:39:44;;;;;;;27.60;10.65;;;7.60;99.90;;;;;;5063891;28;20132;-73
2021/03/25 00:42:11;;;;;;;21.75;10.60;;;7.60;99.90;;;;;;5063900;28;20098;-73
2021/03/25 00:44:37;;;;;;;21.48;10.25;;;7.60;99.90;;;;;;5063595;28;20017;-74
2021/03/25 00:47:03;;;;;;;32.20;11.75;;;7.60;99.90;;;;;;5061772;28;20147;-74
2021/03/25 00:49:30;;;;;;;25.50;10.70;;;7.60;99.90;;;;;;5062227;28;20111;-74
2021/03/25 00:51:56;;;;;;;26.42;10.77;;;7.60;99.90;;;;;;5063685;28;20035;-75
2021/03/25 00:54:21;;;;;;;38.08;12.27;;;7.50;99.90;;;;;;5063777;28;20068;-74
2021/03/25 00:56:47;;;;;;;26.67;11.80;;;7.50;99.90;;;;;;5062021;28;20029;-74
2021/03/25 00:59:12;;;;;;;24.15;10.20;;;7.50;99.90;;;;;;5064335;28;20040;-74
2021/03/25 01:01:38;;;;;;;26.27;10.73;;;7.50;99.90;;;;;;5063261;28;20092;-74
2021/03/25 01:04:04;;;;;;;23.00;10.27;;;7.50;99.90;;;;;;5081709;28;20054;-73
2021/03/25 01:06:29;;;;;;;24.70;10.43;;;7.40;99.90;;;;;;5083384;28;20034;-74
2021/03/25 01:08:55;;;;;;;30.10;12.00;;;7.40;99.90;;;;;;5083332;28;20029;-75
2021/03/25 01:11:25;;;;;;;27.52;10.60;;;7.40;99.90;;;;;;5081864;28;20115;-73
2021/03/25 01:13:57;;;;;;;23.77;9.73;;;7.40;99.90;;;;;;5082430;28;20021;-73
2021/03/25 01:16:34;;;;;;;30.50;9.98;;;7.50;99.90;;;;;;5080841;28;20032;-73
2021/03/25 01:19:01;;;;;;;22.13;10.05;;;7.40;99.90;;;;;;5064136;28;20209;-74
2021/03/25 01:21:27;;;;;;;27.75;10.77;;;7.40;99.90;;;;;;5062528;28;20088;-74
2021/03/25 01:23:54;;;;;;;34.05;10.82;;;7.40;99.90;;;;;;5064344;28;20028;-73
2021/03/25 01:26:19;;;;;;;40.17;11.45;;;7.40;99.90;;;;;;5063971;28;20033;-73
2021/03/25 01:28:45;;;;;;;32.15;12.75;;;7.40;99.90;;;;;;5063927;28;20095;-73
2021/03/25 01:31:11;;;;;;;30.27;12.27;;;7.40;99.90;;;;;;5064029;28;20134;-73
2021/03/25 01:33:36;;;;;;;43.47;12.73;;;7.40;99.90;;;;;;5062649;28;20111;-74
2021/03/25 01:36:02;;;;;;;38.67;12.75;;;7.30;99.90;;;;;;5063916;28;20021;-75
2021/03/25 01:38:28;;;;;;;27.20;12.70;;;7.30;99.90;;;;;;5064201;28;20083;-74
2021/03/25 01:41:00;;;;;;;33.17;12.55;;;7.20;99.90;;;;;;5062957;28;20071;-75
2021/03/25 01:43:32;;;;;;;31.58;11.05;;;7.20;99.90;;;;;;5062885;28;20048;-74
2021/03/25 01:46:16;;;;;;;33.10;12.00;;;7.20;99.90;;;;;;5062554;28;20033;-74
2021/03/25 01:48:44;;;;;;;25.13;11.05;;;7.20;99.90;;;;;;5063882;28;20089;-73
2021/03/25 01:51:31;;;;;;;28.02;12.02;;;7.20;99.90;;;;;;5063644;28;20591;-74
2021/03/25 01:54:09;;;;;;;31.38;11.57;;;7.20;99.90;;;;;;5063994;28;20032;-73
2021/03/25 01:57:09;;;;;;;34.88;13.60;;;7.10;99.90;;;;;;5062546;28;20061;-73
2021/03/25 02:00:03;;;;;;;33.63;13.02;;;7.10;99.90;;;;;;5062939;28;20033;-74
2021/03/25 02:02:48;;;;;;;38.45;14.55;;;7.10;99.90;;;;;;5067951;28;20025;-71
2021/03/25 02:05:47;;;;;;;30.65;11.10;;;7.10;99.90;;;;;;5067475;28;20113;-72
2021/03/25 02:08:16;;;;;;;34.28;12.77;;;7.10;99.90;;;;;;5074648;28;20048;-71
2021/03/25 02:10:49;;;;;;;32.35;11.60;;;7.10;99.90;;;;;;5067258;28;20108;-71
2021/03/25 02:13:36;;;;;;;37.55;13.10;;;7.10;99.90;;;;;;5078263;28;20032;-71
2021/03/25 02:16:45;;;;;;;36.35;14.50;;;7.10;99.90;;;;;;5087420;28;20078;-72
2021/03/25 02:19:11;;;;;;;31.25;12.13;;;7.10;99.90;;;;;;5086025;28;20115;-71
2021/03/25 02:22:14;;;;;;;28.30;12.75;;;7.10;99.90;;;;;;5085868;28;20037;-71
2021/03/25 02:24:52;;;;;;;40.42;12.88;;;7.10;99.90;;;;;;5085784;28;20028;-72
2021/03/25 02:27:55;;;;;;;34.25;13.38;;;7.20;99.90;;;;;;5087203;28;20107;-72
2021/03/25 02:30:34;;;;;;;33.63;13.40;;;7.20;99.90;;;;;;5085985;28;20132;-72
2021/03/25 02:33:02;;;;;;;34.67;12.43;;;7.20;99.90;;;;;;5085864;28;20047;-73
2021/03/25 02:35:40;;;;;;;28.30;12.00;;;7.20;99.90;;;;;;5087041;28;20032;-73
2021/03/25 02:38:29;;;;;;;39.17;11.43;;;7.10;99.90;;;;;;5086874;28;20037;-72
2021/03/25 02:41:03;;;;;;;31.77;11.70;;;7.20;99.90;;;;;;5086946;28;20087;-72
2021/03/25 02:43:38;;;;;;;38.13;13.20;;;7.20;99.90;;;;;;5087199;28;20025;-72
2021/03/25 02:46:31;;;;;;;33.65;14.38;;;7.20;99.90;;;;;;5086701;28;20427;-72
2021/03/25 02:49:01;;;;;;;34.25;12.77;;;7.10;99.90;;;;;;5085843;28;20051;-72
2021/03/25 02:51:33;;;;;;;37.17;12.15;;;7.10;99.90;;;;;;5085638;28;20033;-73
2021/03/25 02:53:59;;;;;;;29.50;11.23;;;7.10;99.90;;;;;;5086765;28;20590;-72
2021/03/25 02:56:42;;;;;;;39.63;12.43;;;7.00;99.90;;;;;;5086843;28;20020;-74
2021/03/25 02:59:21;;;;;;;27.00;10.05;;;7.00;99.90;;;;;;5086441;28;20040;-72
2021/03/25 03:01:51;;;;;;;37.33;12.07;;;6.90;99.90;;;;;;5086642;28;20028;-72
2021/03/25 03:04:24;;;;;;;34.97;14.35;;;6.90;99.90;;;;;;5086394;28;20043;-72
2021/03/25 03:07:07;;;;;;;36.53;13.83;;;6.80;99.90;;;;;;5086465;28;20031;-72
2021/03/25 03:09:40;;;;;;;29.17;13.02;;;6.80;99.90;;;;;;5086138;28;20042;-73
2021/03/25 03:12:14;;;;;;;34.27;13.47;;;6.80;99.90;;;;;;5085972;28;20040;-72
2021/03/25 03:14:49;;;;;;;29.10;12.13;;;6.70;99.90;;;;;;5086365;28;20028;-73
2021/03/25 03:17:18;;;;;;;;;;;6.70;99.90;;;;;;5086396;28;20052;-72
2021/03/25 03:19:52;;;;;;;39.22;13.68;;;6.60;99.90;;;;;;5086015;28;19935;-72
2021/03/25 03:22:17;;;;;;;46.90;14.73;;;6.60;99.90;;;;;;5086036;28;20021;-73
2021/03/25 03:24:47;;;;;;;41.67;13.93;;;6.60;99.90;;;;;;5084365;28;20040;-73
2021/03/25 03:27:25;;;;;;;39.70;14.32;;;6.60;99.90;;;;;;5086010;28;20021;-73
2021/03/25 03:29:53;;;;;;;36.17;14.40;;;6.60;99.90;;;;;;5086296;28;20037;-72
2021/03/25 03:32:33;;;;;;;36.85;14.38;;;6.60;99.90;;;;;;5084688;28;20029;-72
2021/03/25 03:35:12;;;;;;;37.97;14.02;;;6.50;99.90;;;;;;5084679;28;20040;-73
2021/03/25 03:37:47;;;;;;;30.10;14.20;;;6.50;99.90;;;;;;5085654;28;20047;-72
2021/03/25 03:40:22;;;;;;;34.28;12.82;;;6.50;99.90;;;;;;5084394;28;20024;-72
2021/03/25 03:42:49;;;;;;;37.85;15.73;;;6.50;99.90;;;;;;5085806;28;20066;-72
2021/03/25 03:45:19;;;;;;;37.20;13.95;;;6.50;99.90;;;;;;5084438;28;20052;-71
2021/03/25 03:47:47;;;;;;;39.90;14.38;;;6.50;99.90;;;;;;5085620;28;20075;-72
2021/03/25 03:50:35;;;;;;;38.20;13.77;;;6.40;99.90;;;;;;5085597;28;20111;-72
2021/03/25 03:53:01;;;;;;;29.92;12.10;;;6.40;99.90;;;;;;5084119;28;20025;-72
2021/03/25 03:55:29;;;;;;;31.30;15.10;;;6.30;99.90;;;;;;5084051;28;20024;-73
2021/03/25 03:58:06;;;;;;;28.60;12.95;;;6.40;99.90;;;;;;5085712;28;20112;-71
2021/03/25 04:00:51;;;;;;;27.55;10.77;;;6.30;99.90;;;;;;5084061;28;20100;-72
2021/03/25 04:03:27;;;;;;;;;;;6.30;99.90;;;;;;5084561;28;20037;-71
2021/03/25 04:06:29;;;;;;;30.00;11.25;;;6.40;99.90;;;;;;5085286;28;19915;-71
2021/03/25 04:09:13;;;;;;;33.05;13.20;;;6.40;99.90;;;;;;5085528;28;20051;-72
2021/03/25 04:11:46;;;;;;;32.15;13.68;;;6.50;99.90;;;;;;5085138;28;20052;-71
2021/03/25 04:14:46;;;;;;;35.05;12.63;;;6.40;99.90;;;;;;5085096;28;20072;-70
2021/03/25 04:17:17;;;;;;;29.08;12.65;;;6.50;99.90;;;;;;5084149;28;20053;-71
2021/03/25 04:19:48;;;;;;;36.63;12.93;;;6.40;99.90;;;;;;5084742;28;20081;-71
2021/03/25 04:22:31;;;;;;;31.40;11.88;;;6.30;99.90;;;;;;5084037;28;20506;-71
2021/03/25 04:25:35;;;;;;;29.17;10.40;;;6.30;99.90;;;;;;5084999;28;20028;-71
2021/03/25 04:28:15;;;;;;;24.75;11.82;;;6.30;99.90;;;;;;5083471;28;20067;-72
2021/03/25 04:30:47;;;;;;;25.63;10.20;;;6.30;99.90;;;;;;5084920;28;20033;-71
2021/03/25 04:33:20;;;;;;;35.55;10.93;;;6.30;99.90;;;;;;5084560;28;20029;-70
2021/03/25 04:35:46;;;;;;;38.25;13.65;;;6.30;99.90;;;;;;5084693;28;20335;-71
2021/03/25 04:38:21;;;;;;;25.95;11.02;;;6.30;99.90;;;;;;5084329;28;20060;-71
2021/03/25 04:40:47;;;;;;;25.33;10.55;;;6.30;99.90;;;;;;5084623;28;20024;-72
2021/03/25 04:43:21;;;;;;;21.80;10.32;;;6.30;99.90;;;;;;5084621;28;20039;-71
2021/03/25 04:45:54;;;;;;;28.97;12.30;;;6.30;99.90;;;;;;5084558;28;20020;-71
2021/03/25 04:48:23;;;;;;;35.22;14.63;;;6.30;99.90;;;;;;5084726;28;20032;-73
2021/03/25 04:50:58;;;;;;;29.73;10.23;;;6.20;99.90;;;;;;5084632;28;20392;-72
2021/03/25 04:53:27;;;;;;;29.55;12.10;;;6.20;99.90;;;;;;5083385;28;20024;-72
2021/03/25 04:55:53;;;;;;;24.77;9.85;;;6.20;99.90;;;;;;5084802;28;20111;-72
2021/03/25 04:58:33;;;;;;;33.35;12.60;;;6.10;99.90;;;;;;5084173;28;20036;-72
2021/03/25 05:01:07;;;;;;;34.17;12.45;;;6.10;99.90;;;;;;5084478;28;20031;-72
2021/03/25 05:03:34;;;;;;;33.47;11.65;;;6.10;99.90;;;;;;5082932;28;20027;-73
2021/03/25 05:06:00;;;;;;;33.88;14.55;;;6.10;99.90;;;;;;5084393;28;20051;-73
2021/03/25 05:08:31;;;;;;;32.38;11.93;;;6.10;99.90;;;;;;5084386;28;20461;-73
2021/03/25 05:11:08;;;;;;;30.25;11.07;;;6.10;99.90;;;;;;5083291;28;20037;-72
2021/03/25 05:13:39;;;;;;;40.38;13.02;;;6.10;99.90;;;;;;5084103;28;20527;-73
2021/03/25 05:16:38;;;;;;;33.08;11.75;;;6.10;99.90;;;;;;5082924;28;20024;-72
2021/03/25 05:19:19;;;;;;;30.52;12.15;;;6.00;99.90;;;;;;5083939;28;20100;-73
2021/03/25 05:22:03;;;;;;;30.15;11.52;;;6.10;99.90;;;;;;5084091;28;20025;-72
2021/03/25 05:24:38;;;;;;;32.80;12.02;;;6.00;99.90;;;;;;5084398;28;20035;-72
2021/03/25 05:27:23;;;;;;;34.75;12.25;;;6.00;99.90;;;;;;5084084;28;20028;-74
2021/03/25 05:29:52;;;;;;;32.28;12.30;;;6.00;99.90;;;;;;5082953;28;20138;-72
2021/03/25 05:32:22;;;;;;;31.20;12.40;;;5.90;99.90;;;;;;5084197;28;20036;-72
2021/03/25 05:34:49;;;;;;;29.50;13.00;;;5.90;99.90;;;;;;5086912;28;20029;-73
2021/03/25 05:37:16;;;;;;;36.00;13.43;;;6.00;99.90;;;;;;5087990;28;20091;-72
2021/03/25 05:39:42;;;;;;;45.85;13.50;;;5.90;99.90;;;;;;5088058;28;20028;-72
2021/03/25 05:42:13;;;;;;;31.98;12.93;;;5.90;99.90;;;;;;5088270;28;20020;-72
2021/03/25 05:45:09;;;;;;;32.45;14.18;;;5.80;99.90;;;;;;5089137;28;20028;-72
2021/03/25 05:48:00;;;;;;;34.08;13.68;;;5.80;99.90;;;;;;5089441;28;20030;-72
2021/03/25 05:50:47;;;;;;;40.40;12.30;;;5.70;99.90;;;;;;5087880;28;20058;-75
2021/03/25 05:53:13;;;;;;;27.80;11.43;;;5.70;99.90;;;;;;5089109;28;20120;-72
2021/03/25 05:56:09;;;;;;;36.42;12.25;;;5.70;99.90;;;;;;5088607;28;20060;-72
2021/03/25 05:58:44;;;;;;;34.25;12.15;;;5.60;99.90;;;;;;5089078;28;20044;-73
2021/03/25 06:01:22;;;;;;;25.70;12.18;;;5.60;99.90;;;;;;5087863;28;20028;-73
2021/03/25 06:03:56;;;;;;;36.88;11.65;;;5.60;99.90;;;;;;5088987;28;20078;-73
2021/03/25 06:06:35;;;;;;;;;;;5.50;99.90;;;;;;5087667;28;20039;-73
2021/03/25 06:09:25;;;;;;;34.65;12.05;;;5.50;99.90;;;;;;5088381;28;19932;-74
2021/03/25 06:12:09;;;;;;;35.20;11.43;;;5.50;99.90;;;;;;5073485;28;20028;-73
2021/03/25 06:14:57;;;;;;;32.75;12.15;;;5.50;99.90;;;;;;5087951;28;20101;-73
2021/03/25 06:17:31;;;;;;;25.85;10.93;;;5.50;99.90;;;;;;5088097;28;20041;-73
2021/03/25 06:20:22;;;;;;;25.70;11.48;;;5.50;99.90;;;;;;5082947;28;20040;-74
2021/03/25 06:23:23;;;;;;;34.20;11.70;;;5.50;99.90;;;;;;5066631;28;20108;-75
2021/03/25 06:25:49;;;;;;;34.60;13.40;;;5.50;99.90;;;;;;5065407;28;20109;-75
2021/03/25 06:28:34;;;;;;;22.92;10.35;;;5.60;99.90;;;;;;5072996;28;20029;-75
2021/03/25 06:31:20;;;;;;;24.98;11.40;;;5.60;99.90;;;;;;5077016;28;20054;-75
2021/03/25 06:34:10;;;;;;;24.98;11.73;;;5.60;99.90;;;;;;5072709;28;20040;-76
2021/03/25 06:37:05;;;;;;;31.83;12.43;;;5.60;99.90;;;;;;5056850;28;20027;-77
2021/03/25 06:39:52;;;;;;;54.05;13.85;;;5.70;99.90;;;;;;5073211;28;20134;-77
2021/03/25 06:42:40;;;;;;;42.63;13.48;;;5.70;99.90;;;;;;5069615;28;20032;-74
2021/03/25 06:45:23;;;;;;;24.35;11.25;;;5.80;99.90;;;;;;5078168;28;20029;-75
2021/03/25 06:48:02;;;;;;;25.77;11.55;;;6.00;99.90;;;;;;5046681;28;20045;-74
2021/03/25 06:50:52;;;;;;;41.00;13.05;;;6.10;99.90;;;;;;5066374;28;20044;-75
2021/03/25 06:53:32;;;;;;;29.27;12.35;;;6.30;99.90;;;;;;5073099;28;20096;-75
2021/03/25 06:56:10;;;;;;;45.25;13.95;;;6.40;99.90;;;;;;5086747;28;20029;-75
2021/03/25 06:58:51;;;;;;;28.42;11.98;;;6.50;99.90;;;;;;5071471;28;20064;-76
2021/03/25 07:01:45;;;;;;;31.33;12.48;;;6.60;99.90;;;;;;5066471;28;20036;-75
2021/03/25 07:04:19;;;;;;;27.85;11.80;;;6.70;99.90;;;;;;5064970;28;20033;-75
2021/03/25 07:06:46;;;;;;;30.65;12.20;;;6.90;99.90;;;;;;5066161;28;20119;-76
2021/03/25 07:09:13;;;;;;;36.63;13.82;;;6.90;99.90;;;;;;5066280;28;20080;-75
2021/03/25 07:11:40;;;;;;;30.80;11.98;;;7.00;99.90;;;;;;5073407;28;20032;-74
2021/03/25 07:14:08;;;;;;;29.63;12.85;;;7.10;99.90;;;;;;5079010;28;20025;-75
2021/03/25 07:16:41;;;;;;;30.33;13.27;;;7.20;99.90;;;;;;5077211;28;20045;-76
2021/03/25 07:19:16;;;;;;;41.10;13.98;;;7.20;99.90;;;;;;5085919;28;20044;-75
2021/03/25 07:21:49;;;;;;;36.05;13.45;;;7.20;99.90;;;;;;5068953;28;20028;-75
2021/03/25 07:24:35;;;;;;;36.47;12.10;;;7.30;99.90;;;;;;5056619;28;20017;-74
2021/03/25 07:27:23;;;;;;;35.05;13.02;;;7.40;99.90;;;;;;5057633;28;20036;-75
2021/03/25 07:30:10;;;;;;;48.58;14.45;;;7.50;99.90;;;;;;5058526;28;20051;-75
2021/03/25 07:32:55;;;;;;;33.47;11.68;;;7.60;99.90;;;;;;5065890;28;20062;-76
2021/03/25 07:35:37;;;;;;;28.23;12.02;;;7.70;99.90;;;;;;5066030;28;20116;-75
2021/03/25 07:38:16;;;;;;;39.70;13.10;;;7.80;99.90;;;;;;5065727;28;20035;-76
2021/03/25 07:40:43;;;;;;;29.63;13.35;;;7.90;99.90;;;;;;5064356;28;20097;-75
2021/03/25 07:43:21;;;;;;;34.85;12.75;;;8.00;99.90;;;;;;5065667;28;20024;-75
2021/03/25 07:45:47;;;;;;;29.35;12.68;;;8.10;99.90;;;;;;5064201;28;20018;-75
2021/03/25 07:48:20;;;;;;;42.97;13.68;;;8.10;99.90;;;;;;5065594;28;20032;-75
2021/03/25 07:50:48;;;;;;;25.23;12.10;;;8.20;99.90;;;;;;5065716;28;20059;-75
2021/03/25 07:53:20;;;;;;;32.45;13.43;;;8.20;99.90;;;;;;5065247;28;20029;-75
2021/03/25 07:55:46;;;;;;;29.52;12.02;;;8.30;99.90;;;;;;5065177;28;20025;-74
2021/03/25 07:58:36;;;;;;;29.23;13.15;;;8.30;99.90;;;;;;5064338;28;20044;-75
2021/03/25 08:01:13;;;;;;;26.88;12.50;;;8.30;99.90;;;;;;5072030;28;20094;-75
2021/03/25 08:03:54;;;;;;;34.83;13.85;;;8.40;99.90;;;;;;5071542;28;20126;-75
2021/03/25 08:06:23;;;;;;;27.85;11.15;;;8.60;99.90;;;;;;5084735;28;20043;-75
2021/03/25 08:09:10;;;;;;;30.98;12.35;;;8.90;99.90;;;;;;5065526;28;20047;-75
2021/03/25 08:11:49;;;;;;;29.02;12.35;;;9.10;99.90;;;;;;5063834;28;20029;-75
2021/03/25 08:14:21;;;;;;;27.15;12.90;;;9.40;99.90;;;;;;5074505;28;20020;-74
2021/03/25 08:16:51;;;;;;;33.70;13.10;;;9.40;99.90;;;;;;5083587;28;20052;-75
2021/03/25 08:19:20;;;;;;;32.42;12.88;;;9.40;99.90;;;;;;5083552;28;20094;-75
2021/03/25 08:22:10;;;;;;;42.63;13.68;;;9.50;99.90;;;;;;5084790;28;20033;-75
2021/03/25 08:25:12;;;;;;;29.17;12.75;;;9.60;99.90;;;;;;5083438;28;20029;-76
2021/03/25 08:28:06;;;;;;;35.10;13.52;;;9.70;99.90;;;;;;5082964;28;20035;-75
2021/03/25 08:30:52;;;;;;;24.27;12.13;;;10.00;99.90;;;;;;5084859;28;20029;-75
2021/03/25 08:33:56;;;;;;;29.95;12.32;;;10.30;99.90;;;;;;5084812;28;20074;-75
2021/03/25 08:36:22;;;;;;;43.05;13.82;;;10.50;99.90;;;;;;5083503;28;20036;-75
2021/03/25 08:39:18;;;;;;;27.13;12.52;;;10.70;99.90;;;;;;5072269;28;20543;-75
2021/03/25 08:41:51;;;;;;;29.33;12.10;;;10.90;99.90;;;;;;5081736;28;20033;-74
2021/03/25 08:45:07;;;;;;;30.58;12.63;;;11.10;99.90;;;;;;5064559;28;20529;-74
2021/03/25 08:47:46;;;;;;;41.05;14.27;;;11.30;99.90;;;;;;5065010;28;20161;-76
2021/03/25 08:50:32;;;;;;;26.30;12.18;;;11.40;99.90;;;;;;5075067;28;20078;-74
2021/03/25 08:53:04;;;;;;;24.77;13.27;;;11.60;99.90;;;;;;5087628;28;20041;-76
2021/03/25 08:55:37;;;;;;;29.75;12.15;;;11.70;99.90;;;;;;5084498;28;20038;-76
2021/03/25 08:58:15;;;;;;;26.38;12.93;;;11.80;99.90;;;;;;5069309;28;20033;-75
2021/03/25 09:00:44;;;;;;;42.47;13.32;;;12.00;99.90;;;;;;5064043;28;20028;-75
2021/03/25 09:03:29;;;;;;;27.33;12.30;;;12.30;99.90;;;;;;5062916;28;20046;-76
2021/03/25 09:06:11;;;;;;;33.65;12.65;;;12.50;99.90;;;;;;5059082;28;20032;-75
2021/03/25 09:08:39;;;;;;;27.48;13.57;;;12.60;99.90;;;;;;5063268;28;20079;-76
2021/03/25 09:11:09;;;;;;;26.02;12.13;;;12.80;99.90;;;;;;5063954;28;20021;-75
2021/03/25 09:14:02;;;;;;;33.35;14.90;;;12.80;99.90;;;;;;5063746;28;20033;-76
2021/03/25 09:16:34;;;;;;;32.78;11.98;;;12.90;99.90;;;;;;5068784;28;20037;-76
2021/03/25 09:19:02;;;;;;;29.45;12.85;;;13.00;99.90;;;;;;5071606;28;20063;-76
2021/03/25 09:21:30;;;;;;;23.65;11.65;;;13.10;99.90;;;;;;5077548;28;20029;-77
2021/03/25 09:23:59;;;;;;;25.27;11.82;;;13.20;99.90;;;;;;5062735;28;20021;-76
2021/03/25 09:26:24;;;;;;;31.42;12.00;;;13.50;99.90;;;;;;5079712;28;20032;-75
2021/03/25 09:29:03;;;;;;;29.67;12.55;;;13.70;99.90;;;;;;5084030;28;20029;-75
2021/03/25 09:31:34;;;;;;;23.25;12.10;;;14.00;99.90;;;;;;5084126;28;20035;-76
2021/03/25 09:34:22;;;;;;;27.05;11.43;;;14.10;99.90;;;;;;5076686;28;20025;-75
2021/03/25 09:36:52;;;;;;;29.70;12.95;;;14.30;99.90;;;;;;5067940;28;20041;-75
2021/03/25 09:39:20;;;;;;;30.80;10.90;;;14.20;99.90;;;;;;5060863;28;20159;-75
2021/03/25 09:41:46;;;;;;;22.17;10.00;;;14.20;99.90;;;;;;5077322;28;20032;-74
2021/03/25 09:44:12;;;;;;;24.77;10.93;;;14.30;99.90;;;;;;5083428;28;20080;-76
2021/03/25 09:46:54;;;;;;;26.38;11.45;;;14.50;99.90;;;;;;5081624;28;20028;-76
2021/03/25 09:49:28;;;;;;;33.42;11.90;;;14.70;99.90;;;;;;5071157;28;20033;-73
2021/03/25 09:52:10;;;;;;;21.52;8.98;;;15.00;99.90;;;;;;5063892;28;20550;-73
2021/03/25 09:55:14;;;;;;;21.42;7.22;;;15.10;99.90;;;;;;5063025;28;20033;-73
2021/03/25 09:57:42;;;;;;;16.63;8.20;;;15.40;99.90;;;;;;5063152;28;20072;-76
2021/03/25 10:00:23;;;;;;;21.95;8.95;;;15.50;99.90;;;;;;5063587;28;20055;-76
2021/03/25 10:02:51;;;;;;;16.70;7.70;;;15.70;99.90;;;;;;5063484;28;20055;-75
2021/03/25 10:05:19;;;;;;;21.75;8.07;;;15.60;99.90;;;;;;5062038;28;20029;-75
2021/03/25 10:07:49;;;;;;;15.75;8.00;;;15.80;99.90;;;;;;5063262;28;20050;-75
2021/03/25 10:10:37;;;;;;;17.77;7.68;;;15.80;99.90;;;;;;5061890;28;20496;-74
2021/03/25 10:13:06;;;;;;;15.20;7.55;;;15.90;99.90;;;;;;5071888;28;20055;-75
2021/03/25 10:15:32;;;;;;;13.30;7.40;;;16.00;99.90;;;;;;5079372;28;20036;-76
2021/03/25 10:18:05;;;;;;;14.23;7.15;;;16.00;99.90;;;;;;5063220;28;20076;-76
2021/03/25 10:21:01;;;;;;;23.75;7.25;;;16.00;99.90;;;;;;5063000;28;20044;-75
2021/03/25 10:23:32;;;;;;;17.90;8.13;;;16.10;99.90;;;;;;5086810;28;20032;-74
2021/03/25 10:26:04;;;;;;;13.65;6.90;;;16.20;99.90;;;;;;5086723;28;20085;-74
2021/03/25 10:28:50;;;;;;;21.67;8.02;;;16.50;99.90;;;;;;5084969;28;20054;-75
2021/03/25 10:31:26;;;;;;;15.02;7.05;;;16.60;99.90;;;;;;5085213;28;20177;-76
2021/03/25 10:33:57;;;;;;;13.57;7.45;;;16.80;99.90;;;;;;5085159;28;20044;-75
2021/03/25 10:36:42;;;;;;;11.73;6.72;;;16.90;99.90;;;;;;5085580;28;20025;-75
2021/03/25 10:39:14;;;;;;;;;;;17.00;99.90;;;;;;5085572;28;20041;-77
2021/03/25 10:41:39;;;;;;;13.25;6.40;;;17.10;99.90;;;;;;5086588;28;19904;-75
2021/03/25 10:44:27;;;;;;;15.43;5.95;;;17.10;99.90;;;;;;5085435;28;20063;-76
2021/03/25 10:46:55;;;;;;;13.20;6.35;;;17.30;99.90;;;;;;5086808;28;20020;-75
2021/03/25 10:49:26;;;;;;;12.82;6.10;;;17.40;99.90;;;;;;5080233;28;20028;-76
2021/03/25 10:51:54;;;;;;;10.98;5.80;;;17.40;99.90;;;;;;5069543;28;20120;-75
2021/03/25 10:54:29;;;;;;;10.93;5.97;;;17.50;99.90;;;;;;5081048;28;20021;-74
2021/03/25 10:57:20;;;;;;;18.55;6.03;;;17.80;99.90;;;;;;5066818;28;20029;-77
2021/03/25 11:00:03;;;;;;;13.48;6.10;;;17.70;99.90;;;;;;5066563;28;20142;-76
2021/03/25 11:02:39;;;;;;;18.63;6.10;;;17.70;99.90;;;;;;5066685;28;20021;-75
2021/03/25 11:05:16;;;;;;;14.02;5.78;;;17.70;99.90;;;;;;5066472;28;20075;-74
2021/03/25 11:07:47;;;;;;;10.38;5.15;;;17.60;99.90;;;;;;5066216;28;20078;-77
2021/03/25 11:10:30;;;;;;;13.27;5.57;;;17.40;99.90;;;;;;5066403;28;20089;-78
2021/03/25 11:13:03;;;;;;;14.63;4.95;;;17.50;99.90;;;;;;5066759;28;20060;-77
2021/03/25 11:15:40;;;;;;;11.02;5.28;;;17.90;99.90;;;;;;5066358;28;20064;-75
2021/03/25 11:18:11;;;;;;;19.95;4.82;;;18.20;99.90;;;;;;5064730;28;20041;-75
2021/03/25 11:20:38;;;;;;;12.25;5.00;;;18.30;99.90;;;;;;5066173;28;20032;-75
2021/03/25 11:23:04;;;;;;;5.90;3.78;;;18.20;99.90;;;;;;5064566;28;20025;-76
2021/03/25 11:25:33;;;;;;;13.73;4.22;;;18.10;99.90;;;;;;5065761;28;20397;-77
2021/03/25 11:28:17;;;;;;;10.52;4.57;;;18.00;99.90;;;;;;5063926;28;20463;-76
2021/03/25 11:30:46;;;;;;;10.73;3.90;;;18.00;99.90;;;;;;5060810;28;20033;-77
2021/03/25 11:33:39;;;;;;;8.98;4.00;;;18.00;99.90;;;;;;5072780;28;20024;-75
2021/03/25 11:36:06;;;;;;;7.80;3.90;;;18.30;99.90;;;;;;5085995;28;20017;-77
2021/03/25 11:38:37;;;;;;;5.97;3.97;;;18.50;99.90;;;;;;5085698;28;20073;-75
2021/03/25 11:41:10;;;;;;;8.68;3.78;;;18.50;99.90;;;;;;5069491;28;20508;-77
2021/03/25 11:43:41;;;;;;;9.07;4.05;;;18.30;99.90;;;;;;5066032;28;20036;-77
2021/03/25 11:46:08;;;;;;;11.32;3.78;;;18.20;99.90;;;;;;5065514;28;20081;-78
2021/03/25 11:48:36;;;;;;;7.63;4.03;;;18.10;99.90;;;;;;5065641;28;20032;-75
2021/03/25 11:51:17;;;;;;;15.13;3.08;;;18.40;99.90;;;;;;5065391;28;20036;-79
2021/03/25 11:53:56;;;;;;;4.82;2.58;;;18.70;99.90;;;;;;5065446;28;20028;-75
2021/03/25 11:56:56;;;;;;;6.28;3.33;;;18.50;99.90;;;;;;5064046;28;20036;-76
2021/03/25 11:59:36;;;;;;;6.78;3.45;;;18.70;99.90;;;;;;5064512;28;20053;-76
2021/03/25 12:02:22;;;;;;;14.15;3.58;;;18.50;99.90;;;;;;5051632;28;20034;-78
2021/03/25 12:04:48;;;;;;;5.22;2.92;;;18.10;99.90;;;;;;5072020;28;20063;-74
2021/03/25 12:07:16;;;;;;;6.32;2.70;;;17.70;99.90;;;;;;5078643;28;20021;-78
2021/03/25 12:10:17;;;;;;;5.53;2.53;;;17.40;99.90;;;;;;5083582;28;20088;-79
2021/03/25 12:12:45;;;;;;;5.50;2.20;;;17.20;99.90;;;;;;5083755;28;20028;-77
2021/03/25 12:15:12;;;;;;;2.70;1.92;;;17.10;99.90;;;;;;5085023;28;20062;-77
2021/03/25 12:17:43;;;;;;;6.20;2.20;;;17.10;99.90;;;;;;5084751;28;20052;-79
2021/03/25 12:20:12;;;;;;;2.22;1.42;;;17.00;99.90;;;;;;5074892;28;20020;-77
2021/03/25 12:22:40;;;;;;;4.30;2.15;;;17.10;99.90;;;;;;5083444;28;20104;-77
2021/03/25 12:25:07;;;;;;;4.82;2.15;;;17.00;99.90;;;;;;5084996;28;20021;-78
2021/03/25 12:27:33;;;;;;;10.48;2.60;;;16.70;99.90;;;;;;5082036;28;20030;-77
2021/03/25 12:29:59;;;;;;;5.85;2.90;;;16.60;99.90;;;;;;5082557;28;20120;-78
2021/03/25 12:32:30;;;;;;;6.80;2.80;;;16.60;99.90;;;;;;5085419;28;20385;-76
2021/03/25 12:34:57;;;;;;;6.70;2.78;;;16.40;99.90;;;;;;5064979;28;20147;-78
2021/03/25 12:37:28;;;;;;;6.10;3.10;;;16.30;99.90;;;;;;5064727;28;20481;-76
2021/03/25 12:39:54;;;;;;;9.75;3.55;;;16.10;99.90;;;;;;5064562;28;20034;-76
2021/03/25 12:42:21;;;;;;;8.75;3.22;;;16.00;99.90;;;;;;5044819;28;20110;-74
2021/03/25 12:44:46;;;;;;;16.10;3.80;;;15.80;99.90;;;;;;5059554;28;20025;-77
2021/03/25 12:47:12;;;;;;;7.95;2.72;;;15.50;99.90;;;;;;5044531;28;20053;-75
2021/03/25 12:49:39;;;;;;;11.10;4.22;;;15.50;99.90;;;;;;5049073;28;20085;-76
2021/03/25 12:52:06;;;;;;;11.50;3.83;;;15.30;99.90;;;;;;5084482;28;20035;-76
2021/03/25 12:54:32;;;;;;;5.75;3.20;;;15.20;99.90;;;;;;5083195;28;20028;-78
2021/03/25 12:57:03;;;;;;;7.60;3.13;;;15.20;99.90;;;;;;5083606;28;20092;-74
2021/03/25 12:59:29;;;;;;;5.85;2.92;;;14.80;99.90;;;;;;5083700;28;20614;-75
2021/03/25 13:01:57;;;;;;;10.15;4.00;;;14.90;99.90;;;;;;5084076;28;20093;-76
2021/03/25 13:04:23;;;;;;;6.88;3.08;;;14.90;99.90;;;;;;5072022;28;20028;-74
2021/03/25 13:06:49;;;;;;;7.85;3.80;;;14.80;99.90;;;;;;5062723;28;20040;-74
2021/03/25 13:09:15;;;;;;;4.90;2.83;;;14.60;99.90;;;;;;5074769;28;20032;-75
2021/03/25 13:11:40;;;;;;;9.13;3.75;;;14.60;99.90;;;;;;5069783;28;20039;-76
2021/03/25 13:14:06;;;;;;;7.53;3.17;;;14.40;99.90;;;;;;5062814;28;20051;-74
2021/03/25 13:16:32;;;;;;;11.13;3.00;;;14.40;99.90;;;;;;5064183;28;20080;-77
2021/03/25 13:18:58;;;;;;;12.65;3.55;;;14.30;99.90;;;;;;5076414;28;20092;-75